Time;durP1;ratioP1;P1;durP2;ratioP2;P2;SDS_P1;SDS_P2;PMS_P1;PMS_P2;Temp;Humidity;BMP_temperature;BMP_pressure;BME280_temperature;BME280_humidity;BME280_pressure;Samples;Min_cycle;Max_cycle;Signal;HPM_P1;HPM_P2
2021/05/20 00:00:47;;;;;;;69.43;44.95;;;;;;;6.60;100.00;101945.78;5106961;28;20049;-62
2021/05/20 00:03:13;;;;;;;66.55;42.55;;;;;;;6.58;100.00;101943.09;5103660;28;20024;-62
2021/05/20 00:05:38;;;;;;;68.03;44.75;;;;;;;6.54;100.00;101946.44;5106095;28;20084;-62
2021/05/20 00:08:04;;;;;;;72.78;45.75;;;;;;;6.52;100.00;101950.72;5104523;28;20027;-62
2021/05/20 00:10:29;;;;;;;71.22;43.50;;;;;;;6.47;100.00;101948.78;5103959;28;20082;-62
2021/05/20 00:12:55;;;;;;;72.53;43.78;;;;;;;6.39;100.00;101951.09;5105491;28;20112;-62
2021/05/20 00:15:21;;;;;;;76.50;45.50;;;;;;;6.29;100.00;101949.81;5103688;28;20440;-62
2021/05/20 00:17:49;;;;;;;66.38;41.42;;;;;;;6.24;100.00;101956.63;5106707;28;20036;-62
2021/05/20 00:20:17;;;;;;;81.07;46.78;;;;;;;6.21;100.00;101941.66;5099504;28;20104;-62
2021/05/20 00:22:43;;;;;;;87.10;50.78;;;;;;;6.39;100.00;101941.50;5105212;28;20141;-62
2021/05/20 00:25:09;;;;;;;93.70;51.65;;;;;;;6.40;100.00;101934.50;5103902;28;20133;-62
2021/05/20 00:27:37;;;;;;;90.80;51.78;;;;;;;6.42;100.00;101924.94;5105002;28;20431;-62
2021/05/20 00:30:05;;;;;;;85.78;49.08;;;;;;;6.36;100.00;101943.09;5104410;28;20102;-62
2021/05/20 00:32:30;;;;;;;83.60;49.58;;;;;;;6.36;100.00;101943.97;5104480;28;20031;-62
2021/05/20 00:35:03;;;;;;;82.30;48.42;;;;;;;6.35;100.00;101946.53;5105578;28;20019;-62
2021/05/20 00:37:28;;;;;;;76.20;46.33;;;;;;;6.24;100.00;101954.88;5104072;28;20069;-71
2021/05/20 00:39:55;;;;;;;65.28;41.60;;;;;;;6.22;100.00;101955.69;5105811;28;20024;-63
2021/05/20 00:42:20;;;;;;;63.72;37.95;;;;;;;6.17;100.00;101949.34;5102697;28;20027;-63
2021/05/20 00:44:56;;;;;;;59.72;37.75;;;;;;;6.11;100.00;101945.63;5106146;28;20028;-62
2021/05/20 00:47:26;;;;;;;60.20;38.95;;;;;;;6.06;100.00;101948.94;5100027;28;20374;-66
2021/05/20 00:49:52;;;;;;;70.18;44.83;;;;;;;6.10;100.00;101950.81;5104508;28;20031;-63
2021/05/20 00:52:17;;;;;;;99.00;52.70;;;;;;;6.02;100.00;101944.38;5102435;28;20024;-63
2021/05/20 00:54:43;;;;;;;104.50;54.80;;;;;;;6.02;100.00;101954.88;5106095;28;20033;-62
2021/05/20 00:57:11;;;;;;;82.85;48.30;;;;;;;5.97;100.00;101965.19;5103122;28;20023;-65
2021/05/20 00:59:37;;;;;;;92.90;51.92;;;;;;;5.94;100.00;101958.06;5104864;28;20102;-64
2021/05/20 01:02:02;;;;;;;114.68;64.68;;;;;;;6.02;100.00;101954.88;5104024;28;20543;-63
2021/05/20 01:04:27;;;;;;;105.18;59.22;;;;;;;6.07;100.00;101949.00;5103511;28;20027;-65
2021/05/20 01:06:53;;;;;;;108.25;60.72;;;;;;;6.09;100.00;101951.66;5105107;28;20011;-63
2021/05/20 01:09:18;;;;;;;80.85;50.45;;;;;;;5.97;100.00;101952.06;5102233;28;20036;-66
2021/05/20 01:11:44;;;;;;;86.68;49.72;;;;;;;5.86;100.00;101953.31;5105754;28;20454;-69
2021/05/20 01:14:11;;;;;;;226.80;49.20;;;;;;;5.76;100.00;101963.41;5102359;28;20567;-66
2021/05/20 01:16:38;;;;;;;80.25;47.25;;;;;;;5.71;100.00;101964.97;5104598;28;20024;-64
2021/05/20 01:19:04;;;;;;;79.22;49.58;;;;;;;5.69;100.00;101965.72;5103461;28;20423;-62
2021/05/20 01:21:30;;;;;;;87.53;52.78;;;;;;;5.64;100.00;101959.41;5101495;28;20071;-64
2021/05/20 01:23:55;;;;;;;79.22;50.58;;;;;;;5.74;100.00;101974.69;5104653;28;20051;-65
2021/05/20 01:26:21;;;;;;;84.75;52.78;;;;;;;5.73;100.00;101983.41;5101990;28;20634;-66
2021/05/20 01:28:47;;;;;;;97.03;55.05;;;;;;;5.71;100.00;101978.09;5105410;28;20031;-63
2021/05/20 01:31:12;;;;;;;79.03;50.60;;;;;;;5.65;100.00;101975.22;5102109;28;20028;-64
2021/05/20 01:33:38;;;;;;;94.10;50.25;;;;;;;5.67;100.00;101970.03;5104527;28;20028;-64
2021/05/20 01:36:03;;;;;;;87.32;50.38;;;;;;;5.62;100.00;101984.66;5103227;28;20047;-63
2021/05/20 01:41:05;;;;;;;97.32;59.40;;;;;;;5.44;100.00;101983.03;5103186;28;20036;-66
2021/05/20 01:43:32;;;;;;;87.75;55.53;;;;;;;5.44;100.00;101982.16;5101659;28;20044;-63
2021/05/20 01:45:58;;;;;;;105.30;59.60;;;;;;;5.49;100.00;101975.34;5104270;28;20428;-68
2021/05/20 01:48:28;;;;;;;112.40;67.22;;;;;;;5.45;100.00;101979.59;5101869;28;20565;-63
2021/05/20 01:51:01;;;;;;;120.32;68.93;;;;;;;5.44;100.00;101980.41;5104377;28;20080;-67
2021/05/20 01:53:26;;;;;;;130.73;69.25;;;;;;;5.40;100.00;101982.03;5102384;28;20020;-64
2021/05/20 01:55:51;;;;;;;134.77;75.20;;;;;;;5.46;100.00;101984.03;5104444;28;20107;-63
2021/05/20 01:58:17;;;;;;;133.35;77.43;;;;;;;5.55;100.00;101984.41;5101260;28;20024;-63
2021/05/20 02:00:42;;;;;;;541.88;100.07;;;;;;;5.55;100.00;101979.16;5104614;28;20067;-65
2021/05/20 02:03:08;;;;;;;547.47;101.65;;;;;;;5.57;100.00;101981.84;5102374;28;20055;-65
2021/05/20 02:05:33;;;;;;;504.30;93.57;;;;;;;5.56;100.00;101977.41;5103402;28;20466;-62
2021/05/20 02:07:58;;;;;;;675.20;98.45;;;;;;;5.56;100.00;101980.97;5103960;28;20063;-62
2021/05/20 02:10:24;;;;;;;555.10;98.03;;;;;;;5.63;100.00;101989.97;5101601;28;20048;-63
2021/05/20 02:12:49;;;;;;;594.10;102.20;;;;;;;5.64;100.00;101986.53;5104497;28;20031;-63
2021/05/20 02:15:14;;;;;;;590.10;102.70;;;;;;;5.66;100.00;101987.47;5101296;28;20024;-62
2021/05/20 02:17:40;;;;;;;680.72;109.93;;;;;;;5.71;100.00;101990.31;5104155;28;20326;-62
2021/05/20 02:20:07;;;;;;;833.15;117.75;;;;;;;5.75;100.00;101987.88;5102407;28;20023;-62
2021/05/20 02:22:33;;;;;;;574.30;104.30;;;;;;;5.78;100.00;101981.84;5102824;28;20028;-62
2021/05/20 02:24:58;;;;;;;722.28;113.13;;;;;;;5.77;100.00;101982.69;5103328;28;20039;-63
2021/05/20 02:27:23;;;;;;;673.97;109.63;;;;;;;5.76;100.00;101994.03;5101526;28;20070;-62
2021/05/20 02:29:49;;;;;;;680.60;107.35;;;;;;;5.75;100.00;101984.34;5104749;28;20102;-62
2021/05/20 02:32:14;;;;;;;803.75;117.55;;;;;;;5.73;100.00;101989.53;5101288;28;20060;-63
2021/05/20 02:34:39;;;;;;;651.72;110.72;;;;;;;5.76;100.00;101988.78;5106406;28;20565;-63
2021/05/20 02:37:05;;;;;;;480.27;94.75;;;;;;;5.78;100.00;101987.09;5106647;28;20039;-62
2021/05/20 02:39:30;;;;;;;457.50;97.65;;;;;;;5.79;100.00;101993.25;5106391;28;20028;-62
2021/05/20 02:41:55;;;;;;;558.97;98.28;;;;;;;5.76;100.00;101994.03;5107892;28;20024;-62
2021/05/20 02:44:20;;;;;;;389.02;91.75;;;;;;;5.78;100.00;101981.84;5104968;28;20095;-62
2021/05/20 02:46:46;;;;;;;435.25;90.88;;;;;;;5.79;100.00;101988.00;5108667;28;20432;-62
2021/05/20 02:49:11;;;;;;;445.55;89.97;;;;;;;5.81;100.00;101984.63;5105823;28;20446;-62
2021/05/20 02:51:36;;;;;;;506.48;97.55;;;;;;;5.73;100.00;101988.66;5107003;28;20024;-62
2021/05/20 02:54:02;;;;;;;554.97;103.32;;;;;;;5.76;100.00;101989.66;5106689;28;20121;-62
2021/05/20 02:56:27;;;;;;;385.65;95.88;;;;;;;5.79;100.00;101985.38;5106323;28;20066;-62
2021/05/20 02:58:52;;;;;;;617.22;104.03;;;;;;;5.68;100.00;101985.84;5107801;28;20526;-62
2021/05/20 03:01:23;;;;;;;579.15;100.70;;;;;;;5.70;100.00;101983.28;5104731;28;20383;-62
2021/05/20 03:03:48;;;;;;;616.47;103.18;;;;;;;5.64;100.00;101983.91;5100886;28;20020;-63
2021/05/20 03:06:14;;;;;;;707.92;109.68;;;;;;;5.64;100.00;101990.88;5107786;28;20032;-62
2021/05/20 03:08:39;;;;;;;498.25;103.47;;;;;;;5.66;100.00;101994.47;5105545;28;20028;-62
2021/05/20 03:11:04;;;;;;;532.58;99.03;;;;;;;5.69;100.00;101989.34;5106529;28;20119;-62
2021/05/20 03:13:30;;;;;;;389.48;98.53;;;;;;;5.76;100.00;101987.03;5106201;28;20054;-62
2021/05/20 03:15:55;;;;;;;612.95;101.93;;;;;;;5.69;100.00;101986.72;5105136;28;20047;-62
2021/05/20 03:18:21;;;;;;;460.30;99.28;;;;;;;5.71;100.00;101987.69;5107976;27;20035;-62
2021/05/20 03:20:46;;;;;;;447.90;95.45;;;;;;;5.73;100.00;101991.28;5100029;28;20382;-62
2021/05/20 03:23:11;;;;;;;474.38;98.63;;;;;;;5.66;100.00;101990.09;5107164;28;20141;-62
2021/05/20 03:25:37;;;;;;;534.90;102.43;;;;;;;5.62;100.00;101984.66;5105353;28;20081;-62
2021/05/20 03:28:03;;;;;;;466.77;98.95;;;;;;;5.68;100.00;101987.53;5105768;28;20032;-62
2021/05/20 03:30:29;;;;;;;465.13;101.10;;;;;;;5.69;100.00;101984.97;5106863;28;20028;-62
2021/05/20 03:32:54;;;;;;;401.70;97.68;;;;;;;5.77;100.00;101985.31;5104467;28;20024;-71
2021/05/20 03:35:20;;;;;;;545.00;103.65;;;;;;;5.79;100.00;101978.41;5107418;28;20020;-72
2021/05/20 03:37:45;;;;;;;434.13;99.97;;;;;;;5.81;100.00;101982.00;5104138;28;20027;-72
2021/05/20 03:40:11;;;;;;;609.38;107.82;;;;;;;5.79;100.00;101988.00;5106634;28;20039;-66
2021/05/20 03:42:36;;;;;;;635.30;106.60;;;;;;;5.75;100.00;101987.88;5105136;27;20028;-62
2021/05/20 03:45:05;;;;;;;596.85;110.60;;;;;;;5.73;100.00;101993.91;5105459;28;20051;-62
2021/05/20 03:47:30;;;;;;;508.92;97.10;;;;;;;5.72;100.00;101990.38;5106162;28;20441;-62
2021/05/20 03:49:55;;;;;;;505.23;98.75;;;;;;;5.69;100.00;101986.72;5102739;28;20064;-62
2021/05/20 03:52:21;;;;;;;400.75;90.25;;;;;;;5.67;100.00;101983.16;5107627;28;20126;-63
2021/05/20 03:54:46;;;;;;;456.27;95.07;;;;;;;5.63;100.00;101996.97;5103794;28;20028;-62
2021/05/20 03:57:11;;;;;;;402.55;85.72;;;;;;;5.53;100.00;101993.94;5106333;28;20118;-62
2021/05/20 03:59:37;;;;;;;438.48;87.82;;;;;;;5.47;100.00;101996.28;5104821;28;20026;-63
2021/05/20 04:02:03;;;;;;;381.40;83.10;;;;;;;5.39;100.00;101997.69;5105117;28;20467;-63
2021/05/20 04:04:28;;;;;;;387.23;87.57;;;;;;;5.41;100.00;101990.78;5106191;28;20034;-63
2021/05/20 04:06:53;;;;;;;333.17;85.57;;;;;;;5.40;100.00;101989.88;5103573;28;20027;-63
2021/05/20 04:09:19;;;;;;;330.67;84.90;;;;;;;5.34;100.00;101992.22;5106824;28;20027;-64
2021/05/20 04:11:44;;;;;;;382.75;82.90;;;;;;;5.28;100.00;101998.94;5103757;28;20027;-65
2021/05/20 04:14:10;;;;;;;405.15;88.07;;;;;;;5.23;100.00;101991.75;5105430;28;20119;-63
2021/05/20 04:16:35;;;;;;;412.17;93.53;;;;;;;5.31;100.00;101993.81;5104963;28;20020;-64
2021/05/20 04:19:03;;;;;;;378.15;90.85;;;;;;;5.26;100.00;102001.50;5104875;28;20020;-65
2021/05/20 04:21:28;;;;;;;438.52;95.85;;;;;;;5.17;100.00;102001.97;5105599;28;20019;-66
2021/05/20 04:23:54;;;;;;;380.33;92.30;;;;;;;5.23;100.00;101991.75;5103208;28;20020;-63
2021/05/20 04:26:19;;;;;;;369.58;94.80;;;;;;;5.26;100.00;101992.72;5106611;28;20028;-63
2021/05/20 04:28:46;;;;;;;338.95;92.07;;;;;;;5.28;100.00;101999.81;5102981;28;20028;-62
2021/05/20 04:31:12;;;;;;;393.83;90.15;;;;;;;5.31;100.00;101999.06;5105455;28;20127;-63
2021/05/20 04:33:37;;;;;;;331.20;90.55;;;;;;;5.35;100.00;101995.75;5104635;28;20130;-71
2021/05/20 04:36:03;;;;;;;322.05;93.55;;;;;;;5.43;100.00;101994.34;5104577;28;20458;-71
2021/05/20 04:38:28;;;;;;;379.30;95.07;;;;;;;5.46;100.00;101989.25;5105342;28;20020;-63
2021/05/20 04:40:53;;;;;;;331.10;90.45;;;;;;;5.47;100.00;101991.03;5103217;28;20047;-70
2021/05/20 04:43:19;;;;;;;352.30;87.82;;;;;;;5.49;100.00;101991.09;5106192;28;20020;-70
2021/05/20 04:45:44;;;;;;;435.27;91.97;;;;;;;5.44;100.00;101990.91;5102993;28;20020;-70
2021/05/20 04:48:10;;;;;;;393.77;92.90;;;;;;;5.44;100.00;101996.16;5105053;28;20462;-70
2021/05/20 04:50:36;;;;;;;367.15;90.03;;;;;;;5.47;100.00;102000.63;5103956;28;20028;-71
2021/05/20 04:53:01;;;;;;;449.17;96.57;;;;;;;5.45;100.00;102007.56;5104222;28;20096;-69
2021/05/20 04:55:26;;;;;;;420.08;98.60;;;;;;;5.47;100.00;102001.53;5105522;28;20028;-70
2021/05/20 04:57:52;;;;;;;371.48;90.53;;;;;;;5.57;100.00;102003.72;5101919;28;20028;-70
2021/05/20 05:00:18;;;;;;;323.73;93.63;;;;;;;5.65;100.00;102006.69;5106012;28;20038;-70
2021/05/20 05:02:43;;;;;;;355.83;92.47;;;;;;;5.69;100.00;102002.47;5102896;28;20466;-70
2021/05/20 05:05:09;;;;;;;366.38;93.53;;;;;;;5.72;100.00;102002.59;5104501;28;20036;-71
2021/05/20 05:07:34;;;;;;;332.65;96.78;;;;;;;5.84;100.00;102002.19;5104268;28;20030;-71
2021/05/20 05:10:00;;;;;;;374.38;95.30;;;;;;;5.84;100.00;102010.06;5103387;28;20028;-70
2021/05/20 05:12:26;;;;;;;381.98;96.60;;;;;;;5.85;100.00;102004.00;5104949;28;20023;-68
2021/05/20 05:14:52;;;;;;;362.75;98.68;;;;;;;5.93;100.00;102014.00;5102047;28;20042;-70
2021/05/20 05:17:17;;;;;;;360.45;98.80;;;;;;;5.97;100.00;102016.75;5097554;28;20578;-69
2021/05/20 05:19:42;;;;;;;348.65;92.32;;;;;;;6.01;100.00;102023.97;5105009;28;20043;-68
2021/05/20 05:22:08;;;;;;;367.50;88.13;;;;;;;6.01;100.00;102014.34;5103496;28;20547;-71
2021/05/20 05:24:33;;;;;;;346.48;85.60;;;;;;;6.01;100.00;102016.97;5103344;28;20479;-72
2021/05/20 05:26:59;;;;;;;372.80;95.28;;;;;;;6.07;100.00;102021.56;5104661;28;20386;-70
2021/05/20 05:29:26;;;;;;;335.67;86.53;;;;;;;6.08;100.00;102018.13;5101973;28;20043;-71
2021/05/20 05:31:51;;;;;;;316.50;85.50;;;;;;;6.14;100.00;102013.13;5105183;28;20055;-71
2021/05/20 05:34:17;;;;;;;323.45;87.63;;;;;;;6.16;100.00;102021.97;5095550;28;20462;-62
2021/05/20 05:36:43;;;;;;;263.20;85.45;;;;;;;6.21;100.00;102022.16;5091481;28;20032;-64
2021/05/20 05:39:09;;;;;;;289.50;88.20;;;;;;;6.32;100.00;102023.50;5091462;28;20024;-64
2021/05/20 05:41:35;;;;;;;283.92;88.20;;;;;;;6.41;100.00;102020.34;5092642;28;20032;-63
2021/05/20 05:44:00;;;;;;;251.60;86.38;;;;;;;6.46;100.00;102016.16;5091732;28;20032;-63
2021/05/20 05:46:25;;;;;;;237.10;79.40;;;;;;;6.51;100.00;102021.59;5092943;28;20015;-63
2021/05/20 05:48:51;;;;;;;327.35;89.82;;;;;;;6.60;100.00;102019.34;5091593;28;20056;-64
2021/05/20 05:51:19;;;;;;;290.00;83.75;;;;;;;6.60;100.00;102022.84;5093095;28;20180;-63
2021/05/20 05:53:45;;;;;;;298.85;85.22;;;;;;;6.75;100.00;102019.94;5092725;28;20371;-64
2021/05/20 05:56:10;;;;;;;352.50;87.07;;;;;;;6.67;100.00;102021.38;5091916;28;20028;-63
2021/05/20 05:58:36;;;;;;;245.30;80.90;;;;;;;6.76;100.00;102026.97;5091544;28;20020;-63
2021/05/20 06:01:02;;;;;;;222.60;77.88;;;;;;;6.87;100.00;102027.38;5091300;28;20093;-63
2021/05/20 06:03:29;;;;;;;229.90;75.05;;;;;;;6.83;100.00;102033.38;5091367;28;20020;-64
2021/05/20 06:05:54;;;;;;;212.25;77.30;;;;;;;6.90;100.00;102032.78;5091791;28;20031;-63
2021/05/20 06:08:20;;;;;;;329.98;86.15;;;;;;;6.98;100.00;102031.31;5090521;28;20156;-63
2021/05/20 06:10:45;;;;;;;212.68;72.65;;;;;;;7.14;100.00;102043.31;5090422;28;20024;-63
2021/05/20 06:13:12;;;;;;;184.43;69.38;;;;;;;7.13;100.00;102032.75;5092596;28;20053;-63
2021/05/20 06:15:37;;;;;;;242.23;73.82;;;;;;;7.21;100.00;102041.81;5091364;28;20044;-63
2021/05/20 06:18:03;;;;;;;203.82;74.50;;;;;;;7.25;100.00;102038.47;5092280;28;20028;-63
2021/05/20 06:20:28;;;;;;;211.52;60.65;;;;;;;7.33;100.00;102041.38;5072353;28;20032;-63
2021/05/20 06:22:54;;;;;;;179.75;63.17;;;;;;;7.31;100.00;102033.44;5092356;28;20166;-63
2021/05/20 06:25:20;;;;;;;221.88;68.03;;;;;;;7.32;100.00;102037.88;5090771;28;20077;-62
2021/05/20 06:27:45;;;;;;;215.35;66.40;;;;;;;7.44;100.00;102039.13;5089525;28;20024;-63
2021/05/20 06:30:11;;;;;;;189.85;64.80;;;;;;;7.51;100.00;102041.13;5089677;28;20121;-63
2021/05/20 06:32:37;;;;;;;181.05;65.85;;;;;;;7.59;100.00;102042.31;5092101;28;20024;-63
2021/05/20 06:35:04;;;;;;;163.80;67.60;;;;;;;7.79;100.00;102047.38;5090839;28;20042;-62
2021/05/20 06:37:31;;;;;;;151.77;60.65;;;;;;;7.90;100.00;102048.66;5091423;28;20097;-63
2021/05/20 06:39:56;;;;;;;159.77;60.83;;;;;;;7.94;100.00;102047.03;5090436;28;20031;-64
2021/05/20 06:42:22;;;;;;;239.13;63.55;;;;;;;7.90;100.00;102048.66;5091185;28;20028;-63
2021/05/20 06:44:47;;;;;;;217.60;62.38;;;;;;;7.92;100.00;102046.06;5092214;28;20016;-63
2021/05/20 06:47:12;;;;;;;185.95;56.50;;;;;;;7.97;100.00;102050.66;5090810;28;20025;-64
2021/05/20 06:49:38;;;;;;;160.73;58.75;;;;;;;8.03;100.00;102064.03;5090841;28;20024;-63
2021/05/20 06:52:03;;;;;;;165.63;59.10;;;;;;;7.95;100.00;102060.25;5090114;28;20441;-63
2021/05/20 06:54:28;;;;;;;157.10;63.85;;;;;;;8.00;100.00;102061.28;5091062;28;20020;-63
2021/05/20 06:56:58;;;;;;;164.88;64.85;;;;;;;8.13;100.00;102064.34;5092029;28;20111;-63
2021/05/20 07:02:08;;;;;;;165.02;69.47;;;;;;;8.32;100.00;102066.75;5090493;28;20116;-63
2021/05/20 07:04:34;;;;;;;154.00;69.63;;;;;;;8.41;100.00;102065.28;5091492;28;20103;-61
2021/05/20 07:07:03;;;;;;;152.00;68.38;;;;;;;8.52;100.00;102059.53;5089003;28;20403;-64
2021/05/20 07:09:32;;;;;;;160.93;73.40;;;;;;;8.60;100.00;102062.41;5091294;28;20054;-63
2021/05/20 07:11:58;;;;;;;142.07;68.53;;;;;;;8.87;100.00;102066.78;5092135;28;20103;-63
2021/05/20 07:14:23;;;;;;;133.93;66.78;;;;;;;8.98;100.00;102061.81;5092295;28;20140;-62
2021/05/20 07:16:50;;;;;;;130.85;66.65;;;;;;;9.03;100.00;102055.84;5091233;28;20032;-63
2021/05/20 07:19:15;;;;;;;118.10;60.10;;;;;;;9.08;100.00;102063.88;5089396;28;20026;-62
2021/05/20 07:21:41;;;;;;;119.57;60.20;;;;;;;9.02;100.00;102059.31;5095328;28;20028;-63
2021/05/20 07:24:06;;;;;;;113.45;59.40;;;;;;;8.90;100.00;102051.91;5093282;28;20016;-63
2021/05/20 07:26:32;;;;;;;121.25;62.63;;;;;;;8.80;100.00;102051.59;5094533;28;20035;-62
2021/05/20 07:28:57;;;;;;;122.80;62.70;;;;;;;8.85;100.00;102052.63;5094512;28;20119;-62
2021/05/20 07:31:22;;;;;;;115.10;59.25;;;;;;;8.97;100.00;102060.94;5093571;28;20032;-62
2021/05/20 07:33:48;;;;;;;127.05;66.60;;;;;;;8.97;100.00;102062.66;5093885;28;20526;-62
2021/05/20 07:36:13;;;;;;;127.30;64.45;;;;;;;8.97;100.00;102062.66;5094586;28;20454;-62
2021/05/20 07:38:39;;;;;;;126.40;64.43;;;;;;;8.98;100.00;102057.41;5094693;28;20031;-62
2021/05/20 07:41:05;;;;;;;128.95;62.80;;;;;;;8.98;100.00;102059.19;5095921;28;20425;-62
2021/05/20 07:43:31;;;;;;;129.13;63.92;;;;;;;9.08;100.00;102051.56;5094589;28;20032;-62
2021/05/20 07:45:56;;;;;;;128.82;62.47;;;;;;;9.19;100.00;102057.19;5094084;28;20070;-62
2021/05/20 07:48:22;;;;;;;129.70;64.30;;;;;;;9.21;100.00;102055.47;5093603;28;20027;-63
2021/05/20 07:50:47;;;;;;;130.48;62.25;;;;;;;9.38;100.00;102055.09;5096185;28;20516;-62
2021/05/20 07:53:12;;;;;;;118.78;59.47;;;;;;;9.53;100.00;102054.63;5100415;28;20016;-62
2021/05/20 07:55:38;;;;;;;130.85;65.18;;;;;;;9.57;100.00;102060.00;5105869;27;20016;-62
2021/05/20 07:58:05;;;;;;;129.40;63.22;;;;;;;9.62;100.00;102053.97;5103474;28;20035;-63
2021/05/20 08:00:31;;;;;;;120.88;60.80;;;;;;;9.81;100.00;102056.25;5107092;28;20082;-63
2021/05/20 08:03:08;;;;;;;122.05;63.28;;;;;;;9.74;100.00;102055.22;5103644;28;20375;-63
2021/05/20 08:05:40;;;;;;;121.72;58.97;;;;;;;9.96;100.00;102055.78;5100015;28;20039;-63
2021/05/20 08:08:21;;;;;;;120.28;61.00;;;;;;;10.20;100.00;102046.69;5106571;28;20035;-65
2021/05/20 08:11:05;;;;;;;113.20;57.70;;;;;;;10.40;100.00;102042.81;5105178;28;20024;-65
2021/05/20 08:13:31;;;;;;;112.78;56.70;;;;;;;10.54;100.00;102040.50;5099458;28;20085;-66
2021/05/20 08:15:58;;;;;;;106.72;55.80;;;;;;;10.69;97.08;102037.31;5106241;28;20044;-67
2021/05/20 08:18:23;;;;;;;105.68;56.58;;;;;;;10.67;95.38;102033.72;5103970;28;20039;-68
2021/05/20 08:20:49;;;;;;;108.35;57.20;;;;;;;10.68;98.58;102042.56;5105317;28;20425;-65
2021/05/20 08:23:14;;;;;;;113.40;59.65;;;;;;;10.87;100.00;102028.00;5105006;28;20076;-68
2021/05/20 08:25:40;;;;;;;111.05;58.67;;;;;;;10.99;94.71;102030.91;5104293;28;20016;-68
2021/05/20 08:28:05;;;;;;;109.88;59.70;;;;;;;11.02;91.72;102030.09;5106049;27;20027;-67
2021/05/20 08:30:30;;;;;;;106.00;56.53;;;;;;;11.27;91.20;102028.84;5102746;28;20032;-67
2021/05/20 08:32:56;;;;;;;99.53;54.22;;;;;;;11.60;88.97;102014.47;5105508;28;20034;-71
2021/05/20 08:35:23;;;;;;;113.72;58.13;;;;;;;11.94;94.31;102012.47;5103632;28;20346;-64
2021/05/20 08:37:48;;;;;;;94.25;51.28;;;;;;;12.24;86.91;102011.22;5105149;28;20031;-64
2021/05/20 08:40:14;;;;;;;95.32;52.60;;;;;;;12.16;81.97;102006.66;5105459;28;20024;-68
2021/05/20 08:42:40;;;;;;;93.90;53.00;;;;;;;12.24;87.14;102003.25;5103798;28;20032;-70
2021/05/20 08:45:17;;;;;;;92.70;50.92;;;;;;;12.76;86.83;102001.38;5105727;28;20055;-65
2021/05/20 08:47:44;;;;;;;88.15;49.40;;;;;;;13.06;79.38;101994.66;5104022;28;20142;-68
2021/05/20 08:50:11;;;;;;;88.93;49.78;;;;;;;13.42;82.35;102002.19;5105339;28;20028;-65
2021/05/20 08:52:38;;;;;;;79.72;46.22;;;;;;;13.31;76.71;101998.53;5103016;28;20095;-68
2021/05/20 08:55:10;;;;;;;72.60;45.92;;;;;;;12.77;74.29;101999.59;5106188;28;20024;-64
2021/05/20 08:57:35;;;;;;;82.90;47.33;;;;;;;12.49;79.78;101994.78;5103047;28;20468;-66
2021/05/20 09:00:06;;;;;;;81.50;48.10;;;;;;;12.24;80.71;101995.31;5105864;28;20036;-66
2021/05/20 09:02:32;;;;;;;80.70;48.22;;;;;;;12.59;78.91;101995.81;5098661;28;20057;-65
2021/05/20 09:04:59;;;;;;;83.57;50.25;;;;;;;13.13;82.89;101990.34;5105828;28;20019;-66
2021/05/20 09:07:30;;;;;;;79.40;47.95;;;;;;;13.76;77.99;101999.00;5102510;28;20115;-66
2021/05/20 09:10:25;;;;;;;70.05;44.83;;;;;;;14.24;77.90;101989.66;5105224;28;20482;-66
2021/05/20 09:13:01;;;;;;;72.18;46.13;;;;;;;14.36;73.55;101983.53;5103539;28;20020;-68
2021/05/20 09:15:31;;;;;;;68.47;44.92;;;;;;;14.45;70.99;101985.38;5102423;28;20073;-71
2021/05/20 09:18:18;;;;;;;62.67;42.20;;;;;;;14.73;71.22;101980.25;5105364;28;20051;-65
2021/05/20 09:20:52;;;;;;;61.35;42.47;;;;;;;14.93;66.29;101978.56;5101457;28;20024;-65
2021/05/20 09:23:22;;;;;;;64.40;43.30;;;;;;;14.86;66.45;101974.09;5097729;28;20107;-64
2021/05/20 09:25:51;;;;;;;64.00;42.97;;;;;;;14.38;67.61;101970.25;5105011;28;20466;-65
2021/05/20 09:28:30;;;;;;;72.93;44.95;;;;;;;14.63;72.39;101974.88;5101546;28;20056;-65
2021/05/20 09:30:55;;;;;;;61.05;41.80;;;;;;;14.79;65.70;101966.97;5103560;28;20091;-64
2021/05/20 09:33:20;;;;;;;58.33;41.35;;;;;;;14.69;68.83;101968.69;5102055;28;20024;-64
2021/05/20 09:35:49;;;;;;;58.08;41.55;;;;;;;14.68;68.23;101972.25;5105098;28;20035;-65
2021/05/20 09:38:20;;;;;;;53.03;37.45;;;;;;;14.85;64.64;101974.97;5097796;28;20035;-64
2021/05/20 09:41:01;;;;;;;53.65;38.25;;;;;;;15.32;63.29;101973.38;5097008;28;20103;-67
2021/05/20 09:43:30;;;;;;;54.45;38.47;;;;;;;16.19;62.69;101963.66;5101371;28;20028;-64
2021/05/20 09:45:58;;;;;;;54.63;39.03;;;;;;;16.73;62.16;101963.53;5103987;28;20034;-66
2021/05/20 09:48:26;;;;;;;55.28;39.38;;;;;;;17.40;57.11;101954.34;5102257;28;20032;-66
2021/05/20 09:50:54;;;;;;;52.85;37.90;;;;;;;18.16;55.96;101947.53;5104735;28;20038;-65
2021/05/20 09:53:23;;;;;;;54.67;38.38;;;;;;;19.30;54.62;101947.06;5102129;28;20111;-66
2021/05/20 09:55:55;;;;;;;48.78;36.28;;;;;;;19.39;50.13;101946.03;5104681;28;20043;-63
2021/05/20 09:58:23;;;;;;;46.88;34.35;;;;;;;20.42;47.99;101940.72;5102016;28;20110;-67
2021/05/20 10:00:49;;;;;;;44.45;32.90;;;;;;;20.64;42.89;101943.00;5104542;28;20104;-70
2021/05/20 10:03:17;;;;;;;46.15;33.25;;;;;;;19.09;47.94;101932.19;5101475;28;20434;-70
2021/05/20 10:05:52;;;;;;;44.88;32.33;;;;;;;17.91;54.25;101921.00;5097447;28;20031;-67
2021/05/20 10:08:21;;;;;;;43.08;30.50;;;;;;;17.31;54.47;101921.44;5098312;28;20035;-70
2021/05/20 10:10:48;;;;;;;47.55;33.33;;;;;;;16.73;56.61;101924.41;5104725;28;20027;-68
2021/05/20 10:13:20;;;;;;;39.80;27.80;;;;;;;16.76;54.55;101925.28;5097392;28;20022;-66
2021/05/20 10:15:47;;;;;;;38.92;27.85;;;;;;;17.86;52.77;101904.09;5097656;28;20044;-72
2021/05/20 10:18:19;;;;;;;39.75;28.30;;;;;;;17.60;50.60;101903.44;5097124;28;20028;-71
2021/05/20 10:20:47;;;;;;;35.55;23.98;;;;;;;16.64;50.97;101900.41;5097660;28;20028;-68
2021/05/20 10:23:16;;;;;;;35.03;23.10;;;;;;;17.29;49.78;101893.88;5104290;28;20055;-71
2021/05/20 10:25:42;;;;;;;35.22;23.02;;;;;;;18.37;49.08;101893.78;5101358;28;20043;-67
2021/05/20 10:28:11;;;;;;;32.30;21.15;;;;;;;18.39;49.07;101893.75;5103642;28;20505;-69
2021/05/20 10:30:38;;;;;;;31.60;19.60;;;;;;;18.21;50.02;101886.84;5090755;28;20027;-63
2021/05/20 10:33:05;;;;;;;31.65;18.80;;;;;;;19.54;47.12;101885.91;5091523;28;20431;-64
2021/05/20 10:35:50;;;;;;;29.55;18.23;;;;;;;19.74;47.52;101887.38;5092306;28;20028;-64
2021/05/20 10:38:34;;;;;;;30.42;18.45;;;;;;;19.87;46.08;101880.03;5090391;28;20034;-65
2021/05/20 10:41:13;;;;;;;29.48;17.50;;;;;;;18.98;46.76;101876.06;5090647;28;20088;-65
2021/05/20 10:43:41;;;;;;;28.63;16.98;;;;;;;17.84;46.75;101869.34;5093743;28;20020;-66
2021/05/20 10:46:07;;;;;;;29.17;15.68;;;;;;;16.97;46.57;101870.91;5090569;28;20028;-65
2021/05/20 10:48:34;;;;;;;28.27;16.95;;;;;;;16.37;51.68;101864.94;5092020;28;20024;-64
2021/05/20 10:51:05;;;;;;;30.48;16.55;;;;;;;16.43;50.84;101865.81;5091059;28;20032;-65
2021/05/20 10:53:46;;;;;;;29.23;16.42;;;;;;;17.01;51.51;101862.00;5085158;28;20428;-64
2021/05/20 10:56:14;;;;;;;28.10;17.02;;;;;;;17.62;47.86;101855.28;5095738;28;20028;-64
2021/05/20 10:58:40;;;;;;;27.90;16.10;;;;;;;18.92;44.33;101841.31;5093325;28;20041;-64
2021/05/20 11:01:09;;;;;;;26.65;15.10;;;;;;;19.42;42.45;101853.97;5094687;28;20069;-64
2021/05/20 11:03:46;;;;;;;25.92;13.80;;;;;;;19.83;44.81;101847.00;5094984;28;20027;-64
2021/05/20 11:06:16;;;;;;;26.00;12.88;;;;;;;20.92;41.71;101835.84;5094506;28;20070;-64
2021/05/20 11:08:41;;;;;;;23.63;12.30;;;;;;;20.96;39.35;101831.28;5094963;28;20085;-64